This is the latest recevied weather packets stored in our database for station/object WD4LSS. If no packets are shown the sender has not sent any weather packets the latest 10 day(s).
| Time | Temp. | Humidity | Pressure | Rain* | Wind** | Luminosity | Snow |
|---|---|---|---|---|---|---|---|
| 1777320016 | 21.67° C | 47% | 1021.9 hPa | 0 mm | - | - | - |
| 1777319416 | 21.67° C | 49% | 1022.1 hPa | 0 mm | - | - | - |
| 1777317616 | 21.67° C | 47% | 1022.4 hPa | 0 mm | - | - | - |
| 1777317016 | 21.11° C | 50% | 1022.4 hPa | 0 mm | - | - | - |
| 1777316716 | 21.11° C | 52% | 1022.4 hPa | 0 mm | - | - | - |
| 1777316416 | 20.56° C | 49% | 1022.5 hPa | 0 mm | - | - | - |
| 1777314916 | 20.56° C | 51% | 1022.8 hPa | 0 mm | - | - | - |
| 1777313116 | 20.56° C | 52% | 1023 hPa | 0 mm | - | - | - |
| 1777311916 | 20° C | 50% | 1023.2 hPa | 0 mm | - | - | - |
| 1777309216 | 18.89° C | 53% | 1023.6 hPa | 0 mm | - | - | - |
| 1777304716 | 17.22° C | 57% | 1024.2 hPa | 0 mm | - | - | - |
| 1777297517 | 13.33° C | 71% | 1024.4 hPa | 0 mm | - | - | - |
| 1777296637 | 12.78° C | 77% | 1024.4 hPa | 0 mm | - | - | - |
| 1777293637 | 11.67° C | 80% | 1024.4 hPa | 0 mm | - | - | - |
| 1777286717 | 10.56° C | 82% | 1023.6 hPa | 0 mm | - | - | - |
| 1777285217 | 10.56° C | 81% | 1023.5 hPa | 0 mm | - | - | - |
| 1777283417 | 10.56° C | 80% | 1023.5 hPa | 0 mm | - | - | - |
| 1777280717 | 10.56° C | 79% | 1022.5 hPa | 0 mm | - | - | - |
| 1777280117 | 10.56° C | 79% | 1022.4 hPa | 0 mm | - | - | - |
| 1777279217 | 10.56° C | 79% | 1022.3 hPa | 0 mm | - | - | - |
| 1777278317 | 10.56° C | 78% | 1022.6 hPa | 0 mm | - | - | - |
| 1777274717 | 10.56° C | 79% | 1022.2 hPa | 0 mm | - | - | - |
| 1777272316 | 10.56° C | 79% | 1022.3 hPa | 0 mm | - | - | - |
| 1777272017 | 10.56° C | 78% | 1022.4 hPa | 0 mm | - | - | - |
| 1777271717 | 10.56° C | 78% | 1022.5 hPa | 0 mm | - | - | - |
* Rain latest hour (hover to see other rain measurements)
** Current wind speed in m/s (hover to see current wind gust speed)